createdAt,value
2018-05-26T00:01:27.782Z,26.57
2018-05-26T00:04:00.381Z,26.57
2018-05-26T00:06:31.799Z,26.51
2018-05-26T00:09:03.317Z,26.56
2018-05-26T00:11:36.792Z,26.53
2018-05-26T00:14:08.386Z,26.45
2018-05-26T00:16:41.199Z,26.61
2018-05-26T00:19:13.773Z,26.64
2018-05-26T00:21:44.361Z,26.58
2018-05-26T00:24:17.667Z,26.56
2018-05-26T00:26:49.105Z,26.52
2018-05-26T00:29:20.467Z,26.43
2018-05-26T00:31:53.205Z,26.46
2018-05-26T00:34:23.696Z,26.47
2018-05-26T00:36:54.554Z,26.68
2018-05-26T00:39:25.596Z,26.71
2018-05-26T00:41:56.091Z,26.63
2018-05-26T00:44:28.768Z,26.44
2018-05-26T00:47:00.242Z,26.38
2018-05-26T00:49:32.162Z,26.40
2018-05-26T00:52:04.021Z,26.37
2018-05-26T00:54:37.046Z,26.25
2018-05-26T00:57:09.387Z,26.10
2018-05-26T00:59:41.089Z,26.09
2018-05-26T01:02:11.527Z,26.07
2018-05-26T01:04:42.108Z,26.03
2018-05-26T01:07:12.999Z,25.98
2018-05-26T01:09:44.419Z,26.00
2018-05-26T01:12:15.269Z,25.92
2018-05-26T01:14:47.584Z,25.89
2018-05-26T01:17:19.986Z,25.84
2018-05-26T01:19:54.743Z,25.89
2018-05-26T01:22:25.291Z,25.86
2018-05-26T01:24:57.692Z,25.86
2018-05-26T01:27:31.292Z,25.92
2018-05-26T01:30:03.697Z,25.85
2018-05-26T01:32:34.280Z,25.78
2018-05-26T01:35:04.819Z,25.82
2018-05-26T01:37:35.272Z,25.86
2018-05-26T01:40:06.533Z,25.89
2018-05-26T01:42:38.802Z,25.97
2018-05-26T01:45:13.268Z,26.10
2018-05-26T01:47:45.598Z,26.12
2018-05-26T01:50:16.050Z,26.14
2018-05-26T01:52:46.857Z,26.17
2018-05-26T01:55:19.167Z,26.16
2018-05-26T01:57:49.666Z,25.92
2018-05-26T02:00:20.187Z,25.90
2018-05-26T02:02:50.597Z,25.94
2018-05-26T02:05:21.380Z,25.93
2018-05-26T02:07:51.944Z,25.97
2018-05-26T02:10:22.393Z,25.93
2018-05-26T02:12:52.814Z,25.88
2018-05-26T02:15:23.225Z,25.81
2018-05-26T02:17:55.807Z,25.71
2018-05-26T02:20:27.269Z,25.75
2018-05-26T02:22:59.574Z,25.75
2018-05-26T02:25:30.361Z,25.67
2018-05-26T02:28:00.819Z,25.54
2018-05-26T02:30:31.290Z,25.58
2018-05-26T02:33:02.325Z,25.50
2018-05-26T02:35:32.786Z,25.47
2018-05-26T02:38:05.171Z,25.37
2018-05-26T02:40:35.634Z,25.37
2018-05-26T02:43:06.085Z,25.37
2018-05-26T02:45:37.600Z,25.36
2018-05-26T02:48:08.122Z,25.45
2018-05-26T02:50:38.547Z,25.39
2018-05-26T02:53:09.969Z,25.53
2018-05-26T02:55:40.450Z,25.53
2018-05-26T02:58:11.234Z,25.59
2018-05-26T03:00:42.466Z,25.62
2018-05-26T03:03:12.936Z,25.63
2018-05-26T03:05:49.626Z,25.53
2018-05-26T03:08:25.138Z,25.33
2018-05-26T03:11:01.001Z,25.32
2018-05-26T03:13:36.556Z,25.25
2018-05-26T03:16:07.390Z,25.19
2018-05-26T03:18:38.033Z,25.12
2018-05-26T03:21:08.494Z,25.06
2018-05-26T03:23:39.334Z,25.15
2018-05-26T03:26:09.810Z,25.13
2018-05-26T03:28:40.355Z,25.15
2018-05-26T03:31:10.849Z,25.07
2018-05-26T03:33:42.183Z,25.25
2018-05-26T03:36:12.685Z,25.23
2018-05-26T03:38:43.562Z,25.25
2018-05-26T03:41:14.330Z,25.26
2018-05-26T03:43:45.054Z,25.24
2018-05-26T03:46:15.773Z,25.32
2018-05-26T03:48:46.199Z,25.43
2018-05-26T03:51:16.645Z,25.50
2018-05-26T03:53:46.863Z,25.61
2018-05-26T03:56:27.858Z,25.73
2018-05-26T03:59:09.283Z,25.83
2018-05-26T04:01:40.207Z,25.86
2018-05-26T04:04:10.674Z,25.97
2018-05-26T04:06:42.348Z,26.16
2018-05-26T04:09:12.817Z,26.46
2018-05-26T04:11:43.367Z,26.76
2018-05-26T04:14:13.899Z,27.13
2018-05-26T04:16:44.286Z,27.42
2018-05-26T04:19:16.742Z,27.64
2018-05-26T04:21:47.488Z,27.93
2018-05-26T04:24:17.940Z,28.20
2018-05-26T04:26:48.424Z,28.48
2018-05-26T04:29:19.721Z,28.78
2018-05-26T04:31:53.326Z,28.96
2018-05-26T04:34:23.903Z,29.32
2018-05-26T04:36:54.478Z,29.52
2018-05-26T04:39:25.478Z,29.56
2018-05-26T04:41:56.006Z,29.62
2018-05-26T04:44:26.583Z,29.69
2018-05-26T04:46:57.054Z,29.82
2018-05-26T04:49:29.336Z,30.01
2018-05-26T04:52:00.072Z,29.99
2018-05-26T04:54:30.617Z,30.03
2018-05-26T04:57:01.703Z,30.16
2018-05-26T04:59:32.189Z,30.27
2018-05-26T05:02:02.626Z,30.26
2018-05-26T05:04:33.478Z,30.54
2018-05-26T05:07:03.913Z,30.62
2018-05-26T05:09:34.510Z,30.74
2018-05-26T05:12:05.257Z,30.88
2018-05-26T05:14:36.325Z,30.90
2018-05-26T05:17:06.827Z,30.73
2018-05-26T05:19:37.225Z,30.79
2018-05-26T05:22:07.634Z,30.80
2018-05-26T05:24:38.522Z,30.83
2018-05-26T05:27:09.005Z,31.29
2018-05-26T05:29:39.534Z,31.57
2018-05-26T05:32:10.310Z,31.64
2018-05-26T05:34:40.783Z,31.80
2018-05-26T05:37:11.289Z,31.84
2018-05-26T05:39:41.778Z,32.03
2018-05-26T05:42:12.302Z,32.18
2018-05-26T05:44:43.092Z,32.23
2018-05-26T05:47:13.642Z,32.32
2018-05-26T05:49:44.748Z,32.67
2018-05-26T05:52:15.238Z,32.71
2018-05-26T05:54:45.719Z,32.64
2018-05-26T05:57:16.642Z,32.65
2018-05-26T05:59:47.433Z,32.61
2018-05-26T06:02:17.875Z,32.62
2018-05-26T06:04:48.396Z,32.72
2018-05-26T06:07:18.848Z,32.87
2018-05-26T06:09:50.329Z,32.94
2018-05-26T06:12:20.807Z,33.07
2018-05-26T06:14:51.757Z,33.10
2018-05-26T06:17:22.865Z,33.30
2018-05-26T06:19:53.375Z,33.29
2018-05-26T06:22:23.799Z,33.39
2018-05-26T06:24:54.322Z,33.41
2018-05-26T06:27:32.014Z,33.68
2018-05-26T06:30:03.692Z,33.77
2018-05-26T06:32:34.164Z,33.92
2018-05-26T06:35:04.650Z,34.21
2018-05-26T06:37:35.248Z,34.31
2018-05-26T06:40:05.834Z,34.19
2018-05-26T06:42:36.705Z,34.15
2018-05-26T06:45:07.209Z,33.91
2018-05-26T06:47:37.722Z,33.84
2018-05-26T06:50:09.091Z,33.75
2018-05-26T06:52:41.545Z,33.76
2018-05-26T06:55:12.465Z,33.92
2018-05-26T06:57:42.988Z,33.75
2018-05-26T07:00:15.289Z,33.81
2018-05-26T07:02:45.918Z,33.81
2018-05-26T07:05:17.109Z,33.90
2018-05-26T07:07:48.574Z,33.78
2018-05-26T07:10:18.962Z,33.78
2018-05-26T07:12:50.009Z,33.89
2018-05-26T07:15:20.476Z,34.04
2018-05-26T07:17:51.044Z,34.13
2018-05-26T07:20:26.469Z,34.26
2018-05-26T07:22:57.262Z,34.37
2018-05-26T07:25:27.896Z,34.36
2018-05-26T07:27:58.934Z,34.81
2018-05-26T07:30:29.539Z,34.66
2018-05-26T07:33:04.597Z,34.48
2018-05-26T07:35:35.239Z,34.83
2018-05-26T07:38:05.667Z,34.98
2018-05-26T07:40:36.433Z,35.53
2018-05-26T07:43:06.957Z,36.07
2018-05-26T07:45:37.436Z,35.88
2018-05-26T07:48:08.236Z,35.75
2018-05-26T07:50:38.856Z,35.66
2018-05-26T07:53:09.628Z,35.60
2018-05-26T07:55:40.397Z,35.70
2018-05-26T07:58:10.881Z,35.76
2018-05-26T08:00:41.701Z,35.80
2018-05-26T08:03:12.186Z,36.09
2018-05-26T08:05:42.686Z,35.91
2018-05-26T08:08:13.421Z,36.07
2018-05-26T08:10:43.869Z,36.04
2018-05-26T08:13:14.509Z,36.15
2018-05-26T08:15:45.384Z,36.49
2018-05-26T08:18:15.931Z,36.88
2018-05-26T08:20:46.457Z,37.15
2018-05-26T08:23:16.961Z,37.39
2018-05-26T08:25:47.420Z,37.54
2018-05-26T08:28:18.248Z,37.43
2018-05-26T08:30:48.785Z,37.18
2018-05-26T08:33:20.116Z,37.11
2018-05-26T08:35:51.079Z,36.75
2018-05-26T08:38:21.544Z,36.82
2018-05-26T08:40:52.026Z,36.68
2018-05-26T08:43:23.181Z,36.61
2018-05-26T08:45:53.584Z,36.49
2018-05-26T08:48:24.318Z,36.46
2018-05-26T08:50:54.885Z,36.49
2018-05-26T08:53:25.355Z,36.59
2018-05-26T08:55:55.826Z,36.47
2018-05-26T08:58:26.364Z,36.49
2018-05-26T09:00:57.130Z,36.52
2018-05-26T09:03:27.659Z,36.54
2018-05-26T09:05:58.222Z,36.65
2018-05-26T09:08:28.694Z,36.60
2018-05-26T09:10:59.894Z,36.64
2018-05-26T09:13:30.978Z,36.85
2018-05-26T09:16:01.626Z,37.04
2018-05-26T09:18:32.242Z,36.98
2018-05-26T09:21:03.057Z,36.95
2018-05-26T09:23:33.610Z,36.78
2018-05-26T09:26:04.095Z,36.94
2018-05-26T09:28:34.621Z,37.33
2018-05-26T09:31:05.101Z,37.67
2018-05-26T09:33:35.940Z,37.58
2018-05-26T09:36:06.414Z,37.63
2018-05-26T09:38:36.971Z,38.09
2018-05-26T09:41:07.498Z,37.60
2018-05-26T09:43:38.000Z,37.96
2018-05-26T09:46:08.810Z,37.62
2018-05-26T09:48:39.315Z,37.66
2018-05-26T09:51:09.770Z,37.60
2018-05-26T09:53:40.290Z,37.47
2018-05-26T09:56:10.808Z,37.48
2018-05-26T09:58:41.587Z,37.77
2018-05-26T10:01:12.109Z,37.77
2018-05-26T10:03:44.891Z,37.15
2018-05-26T10:06:17.247Z,36.93
2018-05-26T10:08:47.707Z,37.38
2018-05-26T10:11:18.628Z,37.91
2018-05-26T10:13:49.083Z,38.12
2018-05-26T10:16:19.597Z,38.31
2018-05-26T10:18:51.554Z,38.40
2018-05-26T10:21:21.992Z,38.19
2018-05-26T10:23:52.431Z,38.22
2018-05-26T10:26:23.374Z,38.50
2018-05-26T10:28:53.993Z,39.08
2018-05-26T10:31:24.481Z,39.38
2018-05-26T10:33:55.552Z,39.44
2018-05-26T10:36:26.091Z,39.36
2018-05-26T10:38:56.913Z,39.58
2018-05-26T10:41:27.471Z,39.34
2018-05-26T10:43:58.025Z,39.02
2018-05-26T10:46:29.259Z,38.70
2018-05-26T10:48:59.550Z,38.74
2018-05-26T10:51:30.362Z,39.02
2018-05-26T10:54:00.665Z,39.44
2018-05-26T10:56:30.907Z,39.51
2018-05-26T10:59:01.347Z,39.64
2018-05-26T11:01:33.458Z,39.33
2018-05-26T11:04:03.683Z,39.36
2018-05-26T11:06:44.471Z,39.43
2018-05-26T11:09:14.750Z,39.24
2018-05-26T11:11:45.783Z,39.47
2018-05-26T11:14:17.901Z,39.40
2018-05-26T11:16:50.842Z,39.65
2018-05-26T11:19:22.927Z,39.82
2018-05-26T11:21:55.939Z,39.83
2018-05-26T11:24:27.730Z,39.79
2018-05-26T11:26:59.966Z,39.50
2018-05-26T11:29:32.034Z,39.20
2018-05-26T11:32:04.555Z,39.44
2018-05-26T11:34:35.699Z,39.67
2018-05-26T11:37:05.942Z,39.75
2018-05-26T11:39:38.190Z,39.77
2018-05-26T11:42:09.336Z,39.83
2018-05-26T11:44:41.556Z,39.71
2018-05-26T11:47:11.869Z,39.49
2018-05-26T11:49:43.934Z,39.44
2018-05-26T11:52:15.329Z,39.34
2018-05-26T11:54:47.472Z,39.57
2018-05-26T11:57:18.750Z,39.71
2018-05-26T11:59:49.955Z,39.89
2018-05-26T12:02:21.272Z,40.05
2018-05-26T12:04:52.701Z,40.45
2018-05-26T12:07:23.906Z,40.77
2018-05-26T12:09:55.983Z,40.50
2018-05-26T12:12:28.540Z,40.38
2018-05-26T12:15:04.643Z,40.55
2018-05-26T12:17:35.851Z,40.71
2018-05-26T12:20:06.951Z,40.61
2018-05-26T12:22:38.137Z,40.64
2018-05-26T12:25:09.732Z,40.59
2018-05-26T12:27:41.644Z,40.69
2018-05-26T12:30:14.439Z,40.21
2018-05-26T12:32:47.934Z,39.99
2018-05-26T12:35:19.074Z,40.51
2018-05-26T12:37:50.221Z,41.00
2018-05-26T12:40:21.382Z,41.20
2018-05-26T12:42:52.845Z,41.08
2018-05-26T12:45:24.881Z,41.05
2018-05-26T12:47:56.124Z,41.01
2018-05-26T12:50:27.577Z,40.87
2018-05-26T12:52:58.641Z,40.67
2018-05-26T12:55:29.746Z,40.28
2018-05-26T12:58:01.116Z,39.89
2018-05-26T13:00:32.176Z,39.85
2018-05-26T13:03:03.334Z,40.19
2018-05-26T13:05:35.337Z,40.59
2018-05-26T13:08:06.398Z,41.14
2018-05-26T13:10:37.694Z,40.69
2018-05-26T13:13:08.796Z,40.34
2018-05-26T13:15:39.863Z,40.58
2018-05-26T13:18:11.374Z,40.86
2018-05-26T13:20:42.488Z,41.17
2018-05-26T13:23:13.559Z,41.26
2018-05-26T13:25:44.971Z,41.41
2018-05-26T13:28:16.066Z,41.71
2018-05-26T13:30:47.268Z,41.66
2018-05-26T13:33:18.319Z,41.68
2018-05-26T13:35:50.267Z,41.71
2018-05-26T13:38:21.826Z,41.67
2018-05-26T13:40:52.955Z,41.98
2018-05-26T13:43:24.656Z,41.22
2018-05-26T13:45:56.001Z,41.18
2018-05-26T13:48:27.384Z,41.62
2018-05-26T13:50:59.300Z,41.60
2018-05-26T13:53:30.814Z,41.76
2018-05-26T13:56:02.826Z,42.04
2018-05-26T13:58:34.238Z,41.90
2018-05-26T14:01:06.517Z,41.64
2018-05-26T14:03:38.274Z,41.88
2018-05-26T14:06:09.610Z,42.19
2018-05-26T14:08:40.975Z,42.13
2018-05-26T14:11:12.823Z,41.81
2018-05-26T14:13:44.265Z,41.75
2018-05-26T14:16:15.684Z,41.96
2018-05-26T14:18:47.034Z,42.26
2018-05-26T14:21:18.445Z,42.13
2018-05-26T14:23:50.269Z,41.62
2018-05-26T14:26:21.622Z,41.32
2018-05-26T14:28:53.333Z,41.20
2018-05-26T14:31:24.730Z,41.25
2018-05-26T14:33:56.086Z,41.17
2018-05-26T14:36:28.602Z,41.04
2018-05-26T14:38:59.957Z,41.74
2018-05-26T14:41:31.426Z,41.96
2018-05-26T14:44:03.588Z,41.99
2018-05-26T14:46:35.915Z,42.30
2018-05-26T14:49:07.642Z,42.82
2018-05-26T14:51:39.046Z,42.82
2018-05-26T14:54:11.411Z,42.80
2018-05-26T14:56:43.963Z,43.25
2018-05-26T14:59:15.270Z,43.30
2018-05-26T15:01:46.635Z,43.19
2018-05-26T15:04:18.499Z,43.29
2018-05-26T15:06:50.006Z,43.23
2018-05-26T15:09:22.211Z,43.87
2018-05-26T15:11:53.875Z,44.10
2018-05-26T15:14:25.279Z,44.32
2018-05-26T15:16:57.017Z,44.28
2018-05-26T15:19:29.945Z,44.40
2018-05-26T15:22:02.572Z,44.30
2018-05-26T15:24:35.539Z,44.05
2018-05-26T15:27:08.544Z,43.88
2018-05-26T15:29:40.025Z,43.72
2018-05-26T15:32:11.657Z,43.92
2018-05-26T15:34:44.019Z,44.17
2018-05-26T15:37:15.720Z,43.91
2018-05-26T15:39:47.272Z,43.57
2018-05-26T15:42:18.694Z,43.08
2018-05-26T15:44:50.422Z,43.01
2018-05-26T15:47:21.746Z,43.28
2018-05-26T15:49:53.189Z,43.07
2018-05-26T15:52:24.619Z,42.99
2018-05-26T15:54:55.988Z,42.94
2018-05-26T15:57:28.608Z,42.99
2018-05-26T16:00:00.050Z,43.15
2018-05-26T16:02:33.131Z,42.73
2018-05-26T16:05:05.594Z,42.42
2018-05-26T16:07:36.932Z,42.27
2018-05-26T16:10:09.770Z,42.09
2018-05-26T16:12:41.480Z,42.12
2018-05-26T16:15:15.084Z,42.17
2018-05-26T16:17:46.873Z,42.47
2018-05-26T16:20:18.289Z,42.38
2018-05-26T16:22:49.735Z,42.31
2018-05-26T16:25:22.441Z,42.19
2018-05-26T16:27:54.013Z,42.37
2018-05-26T16:30:25.572Z,42.58
2018-05-26T16:32:57.042Z,42.63
2018-05-26T16:35:28.443Z,42.49
2018-05-26T16:38:01.412Z,42.44
2018-05-26T16:40:33.629Z,42.51
2018-05-26T16:43:05.181Z,42.51
2018-05-26T16:45:36.565Z,42.56
2018-05-26T16:48:08.803Z,42.45
2018-05-26T16:53:06.953Z,41.91
2018-05-26T16:55:39.237Z,41.86
2018-05-26T16:58:12.110Z,41.59
2018-05-26T17:00:43.898Z,41.38
2018-05-26T17:03:18.672Z,41.15
2018-05-26T17:05:50.382Z,41.22
2018-05-26T17:08:21.774Z,41.12
2018-05-26T17:10:55.188Z,41.26
2018-05-26T17:13:26.979Z,40.99
2018-05-26T17:15:58.409Z,40.77
2018-05-26T17:18:29.874Z,41.01
2018-05-26T17:21:01.515Z,41.11
2018-05-26T17:23:33.727Z,41.09
2018-05-26T17:26:05.094Z,40.99
2018-05-26T17:28:36.842Z,40.95
2018-05-26T17:31:08.245Z,40.89
2018-05-26T17:33:40.551Z,40.83
2018-05-26T17:36:12.831Z,40.81
2018-05-26T17:38:44.147Z,40.68
2018-05-26T17:41:16.442Z,40.66
2018-05-26T17:43:48.701Z,40.62
2018-05-26T17:46:20.241Z,40.58
2018-05-26T17:48:51.527Z,40.34
2018-05-26T17:51:23.746Z,40.21
2018-05-26T17:53:55.442Z,39.91
2018-05-26T17:56:27.140Z,39.60
2018-05-26T17:58:58.547Z,38.92
2018-05-26T18:01:31.102Z,38.52
2018-05-26T18:04:02.652Z,37.95
2018-05-26T18:06:40.366Z,37.59
2018-05-26T18:09:12.657Z,37.30
2018-05-26T18:11:44.436Z,36.94
2018-05-26T18:14:16.031Z,36.69
2018-05-26T18:16:47.462Z,36.47
2018-05-26T18:19:19.243Z,36.25
2018-05-26T18:21:51.634Z,36.01
2018-05-26T18:24:23.991Z,35.84
2018-05-26T18:26:55.671Z,35.64
2018-05-26T18:29:27.171Z,35.52
2018-05-26T18:31:58.724Z,35.38
2018-05-26T18:34:30.153Z,35.28
2018-05-26T18:37:01.731Z,35.07
2018-05-26T18:39:33.471Z,34.94
2018-05-26T18:42:04.884Z,34.86
2018-05-26T18:44:36.499Z,34.71
2018-05-26T18:47:07.946Z,34.51
2018-05-26T18:49:39.370Z,34.31
2018-05-26T18:52:10.663Z,34.23
2018-05-26T18:54:42.116Z,34.14
2018-05-26T18:57:13.506Z,34.08
2018-05-26T18:59:44.874Z,33.91
2018-05-26T19:02:16.283Z,33.81
2018-05-26T19:04:47.916Z,33.65
2018-05-26T19:07:19.507Z,33.61
2018-05-26T19:09:50.838Z,33.49
2018-05-26T19:12:22.206Z,33.39
2018-05-26T19:14:53.646Z,33.26
2018-05-26T19:17:26.287Z,33.17
2018-05-26T19:19:57.879Z,33.09
2018-05-26T19:22:30.186Z,33.06
2018-05-26T19:25:02.029Z,32.94
2018-05-26T19:27:32.490Z,32.78
2018-05-26T19:30:05.524Z,32.63
2018-05-26T19:32:36.458Z,32.55
2018-05-26T19:35:06.986Z,32.45
2018-05-26T19:37:37.517Z,32.41
2018-05-26T19:40:09.164Z,32.33
2018-05-26T19:42:40.617Z,32.27
2018-05-26T19:45:14.397Z,32.42
2018-05-26T19:47:45.860Z,32.31
2018-05-26T19:50:17.202Z,32.15
2018-05-26T19:52:49.029Z,32.12
2018-05-26T19:55:20.110Z,32.14
2018-05-26T19:57:50.542Z,31.97
2018-05-26T20:00:21.063Z,31.81
2018-05-26T20:02:51.590Z,31.90
2018-05-26T20:05:22.314Z,31.90
2018-05-26T20:07:52.926Z,31.73
2018-05-26T20:10:24.118Z,31.82
2018-05-26T20:12:55.072Z,31.73
2018-05-26T20:15:25.654Z,31.67
2018-05-26T20:17:58.367Z,31.58
2018-05-26T20:20:29.067Z,31.55
2018-05-26T20:22:59.583Z,31.34
2018-05-26T20:25:30.379Z,31.10
2018-05-26T20:28:02.666Z,31.02
2018-05-26T20:30:33.183Z,30.96
2018-05-26T20:33:04.017Z,30.98
2018-05-26T20:35:36.605Z,30.90
2018-05-26T20:38:09.150Z,30.84
2018-05-26T20:40:41.395Z,30.82
2018-05-26T20:43:11.995Z,30.88
2018-05-26T20:45:44.706Z,30.83
2018-05-26T20:48:16.670Z,30.77
2018-05-26T20:50:47.314Z,30.65
2018-05-26T20:53:20.660Z,30.64
2018-05-26T20:55:51.149Z,30.65
2018-05-26T20:58:23.524Z,30.63
2018-05-26T21:00:54.111Z,30.52
2018-05-26T21:03:24.591Z,30.26
2018-05-26T21:05:55.514Z,30.23
2018-05-26T21:08:26.002Z,30.29
2018-05-26T21:10:56.590Z,30.31
2018-05-26T21:13:27.354Z,30.25
2018-05-26T21:15:57.922Z,30.22
2018-05-26T21:18:28.506Z,30.24
2018-05-26T21:20:59.006Z,30.08
2018-05-26T21:23:29.561Z,29.98
2018-05-26T21:26:00.387Z,29.96
2018-05-26T21:28:30.849Z,29.88
2018-05-26T21:31:01.384Z,29.84
2018-05-26T21:33:33.630Z,29.83
2018-05-26T21:36:05.246Z,29.74
2018-05-26T21:38:38.826Z,29.61
2018-05-26T21:41:11.160Z,29.54
2018-05-26T21:43:41.632Z,29.56
2018-05-26T21:46:14.313Z,29.53
2018-05-26T21:48:44.787Z,29.39
2018-05-26T21:51:15.324Z,29.24
2018-05-26T21:53:47.758Z,29.20
2018-05-26T21:56:20.052Z,29.18
2018-05-26T21:58:50.833Z,29.29
2018-05-26T22:01:23.191Z,29.24
2018-05-26T22:03:54.649Z,29.23
2018-05-26T22:06:25.203Z,29.20
2018-05-26T22:08:57.530Z,29.17
2018-05-26T22:11:30.253Z,29.12
2018-05-26T22:14:00.737Z,29.06
2018-05-26T22:16:31.250Z,29.04
2018-05-26T22:19:02.061Z,29.06
2018-05-26T22:21:34.428Z,29.05
2018-05-26T22:24:05.914Z,28.98
2018-05-26T22:26:38.226Z,28.91
2018-05-26T22:29:08.646Z,28.77
2018-05-26T22:31:40.410Z,28.81
2018-05-26T22:34:10.855Z,28.69
2018-05-26T22:36:43.338Z,28.66
2018-05-26T22:39:13.634Z,28.60
2018-05-26T22:41:44.143Z,28.57
2018-05-26T22:44:15.877Z,28.63
2018-05-26T22:46:46.626Z,28.66
2018-05-26T22:49:17.121Z,28.52
2018-05-26T22:51:48.734Z,28.53
2018-05-26T22:54:19.290Z,28.48
2018-05-26T22:56:51.689Z,28.45
2018-05-26T22:59:22.131Z,28.37
2018-05-26T23:01:54.443Z,28.35
2018-05-26T23:04:25.411Z,28.38
2018-05-26T23:06:56.182Z,28.45
2018-05-26T23:09:28.904Z,28.45
2018-05-26T23:11:59.387Z,28.32
2018-05-26T23:14:31.796Z,28.21
2018-05-26T23:17:03.545Z,28.25
2018-05-26T23:19:34.072Z,28.22
2018-05-26T23:22:04.926Z,28.20
2018-05-26T23:24:36.496Z,28.27
2018-05-26T23:27:07.065Z,28.22
2018-05-26T23:29:37.827Z,28.21
2018-05-26T23:32:10.126Z,28.23
2018-05-26T23:34:40.711Z,28.11
2018-05-26T23:37:11.616Z,28.01
2018-05-26T23:39:42.185Z,27.99
2018-05-26T23:42:12.765Z,27.93
2018-05-26T23:44:43.641Z,27.75
2018-05-26T23:47:14.122Z,27.69
2018-05-26T23:49:44.630Z,27.57
2018-05-26T23:52:15.191Z,27.50
2018-05-26T23:54:47.582Z,27.48
2018-05-26T23:57:19.212Z,27.45
2018-05-26T23:59:49.770Z,27.37
